createdAt,value
2023-03-17T03:11:07.843Z,94834.00
2023-03-17T03:15:07.979Z,94834.00
2023-03-17T03:19:08.078Z,94834.00
2023-03-17T03:23:08.201Z,94834.00
2023-03-17T03:27:08.354Z,94832.00
2023-03-17T03:31:08.515Z,94844.00
2023-03-17T03:35:08.699Z,94830.00
2023-03-17T03:39:08.755Z,94832.00
2023-03-17T03:43:22.038Z,94836.00
2023-03-17T03:51:08.814Z,94840.00
2023-03-17T03:55:08.755Z,94844.00
2023-03-17T03:59:08.780Z,94838.00
2023-03-17T04:03:08.989Z,94832.00
2023-03-17T04:07:09.021Z,94828.00
2023-03-17T04:11:09.167Z,94832.00
2023-03-17T04:15:09.260Z,94826.00
2023-03-17T04:19:09.479Z,94815.00
2023-03-17T04:23:09.549Z,94834.00
2023-03-17T04:27:09.614Z,94828.00
2023-03-17T04:31:09.763Z,94813.00
2023-03-17T04:35:09.877Z,94813.00
2023-03-17T04:39:10.005Z,94807.00
2023-03-17T04:43:10.098Z,94805.00
2023-03-17T08:15:12.093Z,94750.00
2023-03-17T08:19:12.067Z,94748.00
2023-03-17T08:27:12.034Z,94734.00
2023-03-17T08:31:12.648Z,94734.00
2023-03-17T08:35:11.938Z,94726.00
2023-03-17T08:43:11.885Z,94718.00
2023-03-17T08:47:11.824Z,94709.00
2023-03-17T08:51:11.838Z,94699.00
2023-03-17T08:55:11.756Z,94701.00
2023-03-17T08:59:11.709Z,94691.00
2023-03-17T10:03:12.656Z,94599.00
2023-03-17T10:19:12.636Z,94570.00
2023-03-17T10:23:12.493Z,94570.00
2023-03-17T10:27:12.409Z,94564.00
2023-03-17T10:35:12.368Z,94554.00
2023-03-17T10:51:12.768Z,94519.00
2023-03-17T16:31:13.966Z,94207.00
2023-03-17T16:35:13.873Z,94213.00
2023-03-17T16:39:14.060Z,94223.00
2023-03-17T16:43:24.411Z,94234.00
2023-03-17T16:47:14.969Z,94228.00
2023-03-17T16:51:13.931Z,94238.00
2023-03-17T16:55:14.089Z,94244.00
2023-03-17T16:59:13.996Z,94250.00
2023-03-17T17:03:14.048Z,94254.00
2023-03-17T17:07:14.172Z,94252.00
2023-03-17T17:11:14.209Z,94272.00
2023-03-17T17:15:14.415Z,94266.00
2023-03-17T17:19:14.537Z,94274.00
2023-03-17T17:23:14.776Z,94272.00
2023-03-17T17:27:14.680Z,94270.00
2023-03-17T17:31:14.816Z,94264.00
2023-03-17T17:35:14.674Z,94262.00
2023-03-17T17:39:15.250Z,94258.00
2023-03-17T17:43:14.672Z,94272.00
2023-03-17T17:47:14.551Z,94268.00
2023-03-17T17:51:14.558Z,94270.00
2023-03-17T17:55:14.471Z,94270.00
2023-03-17T17:59:14.445Z,94277.00
2023-03-17T18:03:14.347Z,94262.00
2023-03-17T18:07:14.353Z,94281.00
2023-03-17T18:11:14.373Z,94270.00
2023-03-17T18:15:14.287Z,94274.00
2023-03-17T18:19:14.277Z,94277.00
2023-03-17T18:23:14.278Z,94275.00
2023-03-17T18:27:14.411Z,94285.00
2023-03-17T18:31:14.383Z,94287.00
2023-03-17T18:35:14.410Z,94299.00
2023-03-17T18:39:14.361Z,94285.00
2023-03-17T18:43:14.384Z,94309.00
2023-03-17T18:47:14.384Z,94305.00
2023-03-17T18:51:14.522Z,94307.00
2023-03-17T18:55:14.665Z,94303.00
2023-03-17T18:59:14.823Z,94305.00
2023-03-17T19:03:14.810Z,94303.00
2023-03-17T19:07:14.697Z,94315.00
2023-03-17T19:11:14.667Z,94313.00
2023-03-17T19:15:14.647Z,94309.00
2023-03-17T19:19:14.636Z,94315.00
2023-03-17T19:23:14.561Z,94309.00
2023-03-17T19:27:14.556Z,94315.00
2023-03-17T19:31:14.537Z,94311.00
2023-03-17T19:35:14.438Z,94307.00
2023-03-17T19:39:14.482Z,94313.00
2023-03-17T19:43:20.161Z,94315.00
2023-03-17T19:47:15.401Z,94321.00
2023-03-17T19:51:14.347Z,94315.00
2023-03-17T19:59:15.314Z,94315.00
2023-03-17T20:39:14.642Z,94346.00
2023-03-17T20:43:14.664Z,94344.00
2023-03-17T20:47:14.720Z,94350.00
2023-03-17T20:51:14.850Z,94344.00
2023-03-17T20:55:14.963Z,94344.00
2023-03-17T20:59:15.059Z,94346.00
2023-03-17T21:03:15.150Z,94360.00
2023-03-17T21:07:15.260Z,94354.00
2023-03-17T21:11:15.421Z,94354.00
2023-03-17T21:15:15.516Z,94362.00
2023-03-17T21:19:16.192Z,94366.00
2023-03-17T21:23:15.792Z,94368.00
2023-03-17T21:27:15.911Z,94383.00
2023-03-17T21:31:16.396Z,94395.00
2023-03-17T21:35:16.185Z,94391.00
2023-03-17T21:39:16.317Z,94399.00
2023-03-17T21:43:16.421Z,94391.00
2023-03-17T21:47:16.579Z,94403.00
2023-03-17T21:51:16.980Z,94407.00
2023-03-17T21:55:16.947Z,94415.00
2023-03-17T21:59:17.055Z,94401.00
2023-03-17T22:03:17.292Z,94422.00
2023-03-17T22:07:17.392Z,94421.00
2023-03-17T22:11:17.551Z,94426.00
2023-03-17T22:15:17.754Z,94428.00
2023-03-17T22:19:21.025Z,94442.00
2023-03-17T22:23:17.939Z,94440.00
2023-03-17T22:27:17.933Z,94448.00
2023-03-17T22:31:17.978Z,94444.00
2023-03-17T22:35:17.809Z,94456.00
2023-03-17T22:39:17.816Z,94452.00
2023-03-17T22:43:17.777Z,94446.00
2023-03-17T22:47:17.732Z,94446.00
2023-03-17T22:51:17.700Z,94460.00
2023-03-17T22:55:17.671Z,94458.00
2023-03-17T22:59:17.626Z,94460.00
2023-03-17T23:03:17.904Z,94466.00
2023-03-17T23:07:17.542Z,94472.00
2023-03-17T23:11:17.507Z,94479.00
2023-03-17T23:15:17.503Z,94479.00
2023-03-17T23:19:17.439Z,94479.00
2023-03-17T23:23:17.449Z,94477.00
2023-03-17T23:27:17.355Z,94483.00
2023-03-17T23:31:17.403Z,94489.00
2023-03-17T23:35:17.430Z,94493.00
2023-03-17T23:39:17.531Z,94497.00
2023-03-17T23:43:17.579Z,94501.00
2023-03-17T23:47:17.614Z,94505.00
2023-03-17T23:51:17.604Z,94501.00
2023-03-17T23:55:17.636Z,94495.00
2023-03-17T23:59:17.658Z,94505.00
